Time;durP1;ratioP1;P1;durP2;ratioP2;P2;SDS_P1;SDS_P2;PMS_P1;PMS_P2;Temp;Humidity;BMP_temperature;BMP_pressure;BME280_temperature;BME280_humidity;BME280_pressure;Samples;Min_cycle;Max_cycle;Signal;HPM_P1;HPM_P2
2022/03/09 00:01:37;;;;;;;;;;;26.20;1920.00;;;;;;6234921;23;19939;-82
2022/03/09 00:04:04;;;;;;;;;;;26.20;1894.40;;;;;;6234614;23;19905;-83
2022/03/09 00:06:30;;;;;;;;;;;26.20;1920.00;;;;;;6235958;23;19907;-83
2022/03/09 00:08:56;;;;;;;;;;;26.10;1945.60;;;;;;6262795;23;19899;-82
2022/03/09 00:11:22;;;;;;;;;;;26.10;1920.00;;;;;;6210983;23;20305;-83
2022/03/09 00:13:48;;;;;;;;;;;0.50;1971.20;;;;;;6236354;23;19900;-82
2022/03/09 00:16:14;;;;;;;;;;;26.10;1945.60;;;;;;6236034;23;19927;-82
2022/03/09 00:18:40;;;;;;;;;;;52.00;1971.20;;;;;;6235301;23;19930;-82
2022/03/09 00:21:07;;;;;;;;;;;51.40;1996.80;;;;;;6234559;23;19951;-82
2022/03/09 00:23:33;;;;;;;;;;;26.20;1920.00;;;;;;6236155;23;20336;-82
2022/03/09 00:25:59;;;;;;;;;;;26.20;1920.00;;;;;;6262496;23;19907;-84
2022/03/09 00:28:25;;;;;;;;;;;26.20;1945.60;;;;;;6234369;23;20237;-83
2022/03/09 00:30:51;;;;;;;;;;;26.30;1920.00;;;;;;6235762;23;19957;-83
2022/03/09 00:33:16;;;;;;;;;;;26.30;1920.00;;;;;;6234388;23;19911;-83
2022/03/09 00:35:45;;;;;;;;;;;26.40;1920.00;;;;;;6204880;23;19914;-82
2022/03/09 00:38:11;;;;;;;;;;;26.50;1894.40;;;;;;6205371;23;19904;-83
2022/03/09 00:40:37;;;;;;;;;;;26.50;1920.00;;;;;;6181317;23;19952;-83
2022/03/09 00:43:03;;;;;;;;;;;26.50;1894.40;;;;;;6204601;23;19899;-83
2022/03/09 00:45:29;;;;;;;;;;;51.20;1920.00;;;;;;6205249;23;19903;-82
2022/03/09 00:47:55;;;;;;;;;;;51.20;1945.60;;;;;;6231577;23;19900;-82
2022/03/09 00:50:21;;;;;;;;;;;26.50;1920.00;;;;;;6203668;23;19927;-82
2022/03/09 00:52:47;;;;;;;;;;;26.40;1920.00;;;;;;6204704;23;19900;-83
2022/03/09 00:55:13;;;;;;;;;;;26.40;1894.40;;;;;;6205846;23;19907;-82
2022/03/09 00:57:39;;;;;;;;;;;51.20;1920.00;;;;;;6203355;23;19904;-82
2022/03/09 01:00:06;;;;;;;;;;;26.30;1945.60;;;;;;6203668;23;19907;-82
2022/03/09 01:02:32;;;;;;;;;;;26.40;1920.00;;;;;;6204752;23;19899;-82
2022/03/09 01:04:58;;;;;;;;;;;26.30;1920.00;;;;;;6205506;23;19923;-82
2022/03/09 01:07:24;;;;;;;;;;;26.30;1945.60;;;;;;6204019;23;19900;-82
2022/03/09 01:09:50;;;;;;;;;;;51.20;1996.80;;;;;;6205241;23;19947;-82
2022/03/09 01:12:15;;;;;;;;;;;26.20;1971.20;;;;;;6204044;23;19907;-83
2022/03/09 01:14:41;;;;;;;;;;;25.90;1971.20;;;;;;6204788;23;20228;-82
2022/03/09 01:17:07;;;;;;;;;;;26.10;1920.00;;;;;;6204798;23;19906;-82
2022/03/09 01:19:33;;;;;;;;;;;26.10;1971.20;;;;;;6204924;23;19900;-82
2022/03/09 01:22:00;;;;;;;;;;;26.10;1996.80;;;;;;6203235;23;19899;-82
2022/03/09 01:24:26;;;;;;;;;;;26.10;1945.60;;;;;;6204877;23;19922;-82
2022/03/09 01:26:51;;;;;;;;;;;26.00;1971.20;;;;;;6230890;23;19900;-82
2022/03/09 01:29:18;;;;;;;;;;;26.00;1971.20;;;;;;6231237;23;19971;-82
2022/03/09 01:31:44;;;;;;;;;;;26.30;1996.80;;;;;;6230682;23;19914;-82
2022/03/09 01:34:10;;;;;;;;;;;26.00;1971.20;;;;;;6216084;23;19951;-82
2022/03/09 01:36:37;;;;;;;;;;;26.00;1971.20;;;;;;6234866;23;19946;-82
2022/03/09 01:39:03;;;;;;;;;;;26.00;1945.60;;;;;;6234934;23;19947;-82
2022/03/09 01:41:29;;;;;;;;;;;26.00;1945.60;;;;;;6233139;23;19900;-82
2022/03/09 01:44:05;;;;;;;;;;;26.10;1945.60;;;;;;6234574;23;19907;-82
2022/03/09 01:46:31;;;;;;;;;;;26.10;1945.60;;;;;;6261575;23;19903;-83
2022/03/09 01:48:56;;;;;;;;;;;26.10;1996.80;;;;;;6233786;23;19899;-82
2022/03/09 01:51:23;;;;;;;;;;;26.10;1971.20;;;;;;6234059;23;19930;-83
2022/03/09 01:53:50;;;;;;;;;;;26.30;1945.60;;;;;;6262408;23;19899;-83
2022/03/09 01:56:17;;;;;;;;;;;51.70;2022.40;;;;;;6235578;23;20297;-83
2022/03/09 01:58:43;;;;;;;;;;;26.10;1945.60;;;;;;6235129;23;19900;-83
2022/03/09 02:01:09;;;;;;;;;;;51.70;1996.80;;;;;;6234195;23;20335;-82
2022/03/09 02:03:35;;;;;;;;;;;26.00;1971.20;;;;;;6234569;23;19903;-82
2022/03/09 02:06:01;;;;;;;;;;;25.90;1945.60;;;;;;6234814;23;19903;-83
2022/03/09 02:11:12;;;;;;;;;;;25.90;1971.20;;;;;;6263643;23;19914;-83
2022/03/09 02:13:38;;;;;;;;;;;25.80;1971.20;;;;;;6233002;23;19900;-83
2022/03/09 02:16:05;;;;;;;;;;;25.90;2022.40;;;;;;6234586;23;19907;-82
2022/03/09 02:18:31;;;;;;;;;;;25.80;1971.20;;;;;;6234340;23;19904;-83
2022/03/09 02:21:00;;;;;;;;;;;51.60;2073.60;;;;;;6233860;23;19923;-83
2022/03/09 02:23:26;;;;;;;;;;;25.70;1996.80;;;;;;6233800;23;19907;-83
2022/03/09 02:25:51;;;;;;;;;;;25.70;2022.40;;;;;;6234141;23;19900;-83
2022/03/09 02:28:17;;;;;;;;;;;25.70;2022.40;;;;;;6233453;23;19900;-82
2022/03/09 02:30:43;;;;;;;;;;;26.20;2073.60;;;;;;6234390;23;20244;-83
2022/03/09 02:33:09;;;;;;;;;;;25.80;2022.40;;;;;;6234694;23;19949;-83
2022/03/09 02:35:35;;;;;;;;;;;25.90;2022.40;;;;;;6261007;23;19911;-83
2022/03/09 02:38:06;;;;;;;;;;;0.80;1996.80;;;;;;6235288;23;19951;-83
2022/03/09 02:40:32;;;;;;;;;;;25.70;1996.80;;;;;;6233873;23;19923;-83
2022/03/09 02:42:57;;;;;;;;;;;25.60;2048.00;;;;;;6235029;23;19907;-82
2022/03/09 02:45:23;;;;;;;;;;;0.90;1996.80;;;;;;6234019;23;19899;-83
2022/03/09 02:47:49;;;;;;;;;;;0.80;2022.40;;;;;;6233744;23;19906;-83
2022/03/09 02:50:15;;;;;;;;;;;0.30;2073.60;;;;;;6233148;23;19982;-83
2022/03/09 02:52:41;;;;;;;;;;;0.80;2022.40;;;;;;6235466;23;19923;-82
2022/03/09 02:55:09;;;;;;;;;;;25.60;2022.40;;;;;;6261612;23;19969;-83
2022/03/09 02:57:34;;;;;;;;;;;0.70;2048.00;;;;;;6233455;23;19915;-83
2022/03/09 03:00:00;;;;;;;;;;;0.70;2099.20;;;;;;6235051;23;19903;-83
2022/03/09 03:02:27;;;;;;;;;;;0.70;2099.20;;;;;;6260419;23;19907;-83
2022/03/09 03:04:52;;;;;;;;;;;0.70;2048.00;;;;;;6234958;23;19907;-83
2022/03/09 03:07:19;;;;;;;;;;;0.70;2073.60;;;;;;6234231;23;19931;-83
2022/03/09 03:09:45;;;;;;;;;;;0.70;2048.00;;;;;;6234855;23;20367;-83
2022/03/09 03:12:12;;;;;;;;;;;0.70;2099.20;;;;;;6234143;23;19918;-83
2022/03/09 03:14:41;;;;;;;;;;;0.60;2048.00;;;;;;6261561;23;19907;-82
2022/03/09 03:17:07;;;;;;;;;;;0.50;2073.60;;;;;;6233752;23;19930;-82
2022/03/09 03:19:32;;;;;;;;;;;0.70;2099.20;;;;;;6209343;23;19903;-83
2022/03/09 03:21:58;;;;;;;;;;;0.70;2073.60;;;;;;6234288;23;19900;-82
2022/03/09 03:24:24;;;;;;;;;;;0.70;2073.60;;;;;;6234853;23;19900;-83
2022/03/09 03:26:50;;;;;;;;;;;0.70;2048.00;;;;;;6233406;23;20229;-83
2022/03/09 03:29:16;;;;;;;;;;;0.70;2048.00;;;;;;6234412;23;19899;-83
2022/03/09 03:31:42;;;;;;;;;;;0.70;2099.20;;;;;;6235212;23;19921;-83
2022/03/09 03:34:07;;;;;;;;;;;0.70;2048.00;;;;;;6222490;23;19907;-82
2022/03/09 03:36:33;;;;;;;;;;;0.70;2048.00;;;;;;6205722;23;19904;-83
2022/03/09 03:38:59;;;;;;;;;;;0.70;2022.40;;;;;;6204712;23;19907;-83
2022/03/09 03:41:26;;;;;;;;;;;0.60;2073.60;;;;;;6205144;23;19927;-83
2022/03/09 03:43:52;;;;;;;;;;;0.40;2073.60;;;;;;6180381;23;19904;-82
2022/03/09 03:46:18;;;;;;;;;;;0.40;2099.20;;;;;;6205062;23;19907;-82
2022/03/09 03:48:44;;;;;;;;;;;0.30;2099.20;;;;;;6204695;23;19975;-82
2022/03/09 03:51:09;;;;;;;;;;;0.20;2124.80;;;;;;6205608;23;19908;-83
2022/03/09 03:53:36;;;;;;;;;;;0.30;2176.00;;;;;;6232216;23;19907;-82
2022/03/09 03:56:02;;;;;;;;;;;0.20;2124.80;;;;;;6205032;23;19900;-82
2022/03/09 03:58:29;;;;;;;;;;;0.20;2124.80;;;;;;6232365;23;19906;-82
2022/03/09 04:00:56;;;;;;;;;;;0.20;2099.20;;;;;;6204534;23;19919;-83
2022/03/09 04:03:23;;;;;;;;;;;0.10;2099.20;;;;;;6205966;23;19900;-82
2022/03/09 04:05:50;;;;;;;;;;;0.10;2099.20;;;;;;6205571;23;19987;-83
2022/03/09 04:08:16;;;;;;;;;;;0.10;2124.80;;;;;;6206220;23;19900;-83
2022/03/09 04:10:42;;;;;;;;;;;0.10;2099.20;;;;;;6233042;23;19907;-83
2022/03/09 04:13:08;;;;;;;;;;;0.20;2099.20;;;;;;6205492;23;19970;-83
2022/03/09 04:15:36;;;;;;;;;;;0.20;2124.80;;;;;;6231454;23;19983;-83
2022/03/09 04:18:01;;;;;;;;;;;0.10;2099.20;;;;;;6205445;23;19939;-82
2022/03/09 04:20:27;;;;;;;;;;;0.10;2099.20;;;;;;6204974;23;20258;-83
2022/03/09 04:22:53;;;;;;;;;;;0.20;2099.20;;;;;;6204996;23;19908;-82
2022/03/09 04:25:19;;;;;;;;;;;0.20;2124.80;;;;;;6205966;23;19947;-82
2022/03/09 04:27:45;;;;;;;;;;;0.20;2124.80;;;;;;6205310;23;19927;-81
2022/03/09 04:30:10;;;;;;;;;;;0.30;2099.20;;;;;;6204777;23;20365;-82
2022/03/09 04:32:37;;;;;;;;;;;12.90;2150.40;;;;;;6205795;23;19903;-83
2022/03/09 04:35:05;;;;;;;;;;;0.30;2099.20;;;;;;6205158;23;19950;-82
2022/03/09 04:37:33;;;;;;;;;;;0.40;2073.60;;;;;;6232299;23;19911;-82
2022/03/09 04:39:59;;;;;;;;;;;0.40;2099.20;;;;;;6205223;23;20322;-82
2022/03/09 04:42:26;;;;;;;;;;;0.50;2073.60;;;;;;6205820;23;19923;-82
2022/03/09 04:44:52;;;;;;;;;;;26.20;2073.60;;;;;;6206234;23;19904;-82
2022/03/09 04:47:18;;;;;;;;;;;0.60;2073.60;;;;;;6205902;23;19900;-82
2022/03/09 04:49:43;;;;;;;;;;;0.60;2073.60;;;;;;6205225;23;19907;-82
2022/03/09 04:52:09;;;;;;;;;;;0.70;2099.20;;;;;;6232693;23;19908;-82
2022/03/09 04:54:35;;;;;;;;;;;0.70;2022.40;;;;;;6232271;23;19974;-82
2022/03/09 04:57:02;;;;;;;;;;;0.70;2048.00;;;;;;6206092;23;19903;-82
2022/03/09 04:59:28;;;;;;;;;;;0.80;2022.40;;;;;;6206472;23;19907;-82
2022/03/09 05:01:54;;;;;;;;;;;0.90;2048.00;;;;;;6206635;23;19900;-82
2022/03/09 05:04:19;;;;;;;;;;;25.70;2048.00;;;;;;6203761;23;19956;-82
2022/03/09 05:06:46;;;;;;;;;;;0.80;2022.40;;;;;;6204641;23;19904;-82
2022/03/09 05:09:12;;;;;;;;;;;25.60;2022.40;;;;;;6205189;23;19906;-82
2022/03/09 05:11:37;;;;;;;;;;;25.60;2022.40;;;;;;6205061;23;19907;-82
2022/03/09 05:14:03;;;;;;;;;;;25.70;2048.00;;;;;;6205738;23;19946;-82
2022/03/09 05:16:29;;;;;;;;;;;25.60;2048.00;;;;;;6204379;23;19907;-82
2022/03/09 05:18:54;;;;;;;;;;;25.70;2073.60;;;;;;6204635;23;19900;-82
2022/03/09 05:21:20;;;;;;;;;;;25.70;2022.40;;;;;;6231578;23;19903;-82
2022/03/09 05:23:46;;;;;;;;;;;25.80;2073.60;;;;;;6205146;23;19900;-82
2022/03/09 05:26:12;;;;;;;;;;;26.10;2022.40;;;;;;6205675;23;19905;-82
2022/03/09 05:28:38;;;;;;;;;;;25.90;2048.00;;;;;;6205177;23;19906;-82
2022/03/09 05:31:04;;;;;;;;;;;26.00;2022.40;;;;;;6204171;23;19958;-82
2022/03/09 05:33:30;;;;;;;;;;;26.00;2022.40;;;;;;6207036;23;19900;-82
2022/03/09 05:35:55;;;;;;;;;;;26.10;2022.40;;;;;;6235011;23;20321;-82
2022/03/09 05:38:22;;;;;;;;;;;26.10;1996.80;;;;;;6235559;22;19907;-82
2022/03/09 05:40:48;;;;;;;;;;;26.20;1996.80;;;;;;6232715;23;19899;-82
2022/03/09 05:43:13;;;;;;;;;;;26.20;1996.80;;;;;;6234707;23;19899;-82
2022/03/09 05:45:39;;;;;;;;;;;26.20;2048.00;;;;;;6235332;23;19934;-82
2022/03/09 05:48:05;;;;;;;;;;;26.30;2022.40;;;;;;6234176;23;19899;-82
2022/03/09 05:50:31;;;;;;;;;;;51.80;2073.60;;;;;;6233641;23;19931;-82
2022/03/09 05:52:57;;;;;;;;;;;26.30;2022.40;;;;;;6235242;23;19910;-82
2022/03/09 05:55:22;;;;;;;;;;;26.50;2073.60;;;;;;6233973;23;19955;-81
2022/03/09 05:57:48;;;;;;;;;;;51.20;2048.00;;;;;;6234492;23;19899;-81
2022/03/09 06:00:14;;;;;;;;;;;25.80;2073.60;;;;;;6235092;23;19915;-82
2022/03/09 06:02:42;;;;;;;;;;;51.20;2022.40;;;;;;6236477;23;19907;-81
2022/03/09 06:05:08;;;;;;;;;;;51.30;1996.80;;;;;;6235387;23;19899;-82
2022/03/09 06:07:34;;;;;;;;;;;51.40;2022.40;;;;;;6234580;23;19922;-82
2022/03/09 06:10:00;;;;;;;;;;;51.40;2022.40;;;;;;6235385;23;19899;-82
2022/03/09 06:12:25;;;;;;;;;;;51.40;2048.00;;;;;;6234522;23;19903;-82
2022/03/09 06:14:51;;;;;;;;;;;51.40;2048.00;;;;;;6234150;23;20320;-81
2022/03/09 06:17:17;;;;;;;;;;;52.00;2048.00;;;;;;6233964;23;19906;-82
2022/03/09 06:19:43;;;;;;;;;;;51.60;2048.00;;;;;;6259871;23;19899;-82
2022/03/09 06:22:09;;;;;;;;;;;51.70;2048.00;;;;;;6260491;23;19906;-82
2022/03/09 06:24:35;;;;;;;;;;;51.70;1996.80;;;;;;6259060;23;19900;-82
2022/03/09 06:27:00;;;;;;;;;;;51.90;2022.40;;;;;;6258998;23;19958;-84
2022/03/09 06:29:27;;;;;;;;;;;51.90;1996.80;;;;;;6233602;23;19900;-82
2022/03/09 06:31:53;;;;;;;;;;;52.00;1996.80;;;;;;6260547;23;19907;-81
2022/03/09 06:34:20;;;;;;;;;;;52.00;2022.40;;;;;;6260109;23;19916;-82
2022/03/09 06:36:46;;;;;;;;;;;26.50;2022.40;;;;;;6231618;23;19930;-82
2022/03/09 06:39:12;;;;;;;;;;;76.80;2048.00;;;;;;6232897;23;19939;-82
2022/03/09 06:41:44;;;;;;;;;;;76.80;2022.40;;;;;;6259238;23;19907;-82
2022/03/09 06:44:10;;;;;;;;;;;76.90;1996.80;;;;;;6233059;23;19900;-82
2022/03/09 06:46:36;;;;;;;;;;;77.00;2022.40;;;;;;6233175;23;19900;-82
2022/03/09 06:49:01;;;;;;;;;;;77.00;2022.40;;;;;;6234927;23;19903;-83
2022/03/09 06:51:27;;;;;;;;;;;77.00;2227.20;;;;;;6233593;23;19908;-83
2022/03/09 06:53:53;;;;;;;;;;;77.30;1971.20;;;;;;6234265;23;19900;-82
2022/03/09 06:56:20;;;;;;;;;;;77.20;1971.20;;;;;;6259610;23;19906;-82
2022/03/09 06:58:46;;;;;;;;;;;77.20;1971.20;;;;;;6233478;23;19900;-82
2022/03/09 07:01:12;;;;;;;;;;;77.30;1971.20;;;;;;6233082;23;19911;-82
2022/03/09 07:03:38;;;;;;;;;;;77.40;1971.20;;;;;;6259777;23;19900;-82
2022/03/09 07:06:04;;;;;;;;;;;52.00;1996.80;;;;;;6233578;23;19900;-82
2022/03/09 07:08:30;;;;;;;;;;;77.70;1996.80;;;;;;6234443;23;19907;-82
2022/03/09 07:10:58;;;;;;;;;;;77.40;1971.20;;;;;;6236440;23;19930;-83
2022/03/09 07:13:25;;;;;;;;;;;77.40;1971.20;;;;;;6236444;23;19945;-82
2022/03/09 07:15:51;;;;;;;;;;;77.40;1971.20;;;;;;6211018;23;19913;-82
2022/03/09 07:18:17;;;;;;;;;;;77.30;1971.20;;;;;;6236016;23;19910;-82
2022/03/09 07:20:43;;;;;;;;;;;77.50;1971.20;;;;;;6234818;23;19927;-82
2022/03/09 07:23:08;;;;;;;;;;;77.50;1996.80;;;;;;6235125;23;19900;-83
2022/03/09 07:25:34;;;;;;;;;;;77.50;1971.20;;;;;;6235585;23;19899;-83
2022/03/09 07:28:00;;;;;;;;;;;77.60;1971.20;;;;;;6235084;23;19900;-82
2022/03/09 07:30:27;;;;;;;;;;;77.40;1945.60;;;;;;6235691;23;19923;-82
2022/03/09 07:32:55;;;;;;;;;;;77.70;1945.60;;;;;;6261971;23;19986;-81
2022/03/09 07:35:21;;;;;;;;;;;77.70;1945.60;;;;;;6235720;23;19916;-83
2022/03/09 07:37:50;;;;;;;;;;;102.40;1945.60;;;;;;6262627;23;19946;-81
2022/03/09 07:40:15;;;;;;;;;;;102.40;1945.60;;;;;;6236314;23;19927;-83
2022/03/09 07:42:42;;;;;;;;;;;102.50;1920.00;;;;;;6236026;23;19911;-83
2022/03/09 07:45:09;;;;;;;;;;;102.50;1894.40;;;;;;6236487;23;20290;-82
2022/03/09 07:47:36;;;;;;;;;;;102.60;1920.00;;;;;;6236603;23;19899;-82
2022/03/09 07:50:03;;;;;;;;;;;102.60;1920.00;;;;;;6235726;23;19941;-82
2022/03/09 07:52:29;;;;;;;;;;;102.70;1894.40;;;;;;6236306;23;19914;-83
2022/03/09 07:54:55;;;;;;;;;;;102.70;1920.00;;;;;;6236789;23;19903;-84
2022/03/09 07:57:20;;;;;;;;;;;102.70;1868.80;;;;;;6263259;23;19903;-82
2022/03/09 08:00:09;;;;;;;;;;;102.80;1868.80;;;;;;6237662;23;19899;-83
2022/03/09 08:02:35;;;;;;;;;;;102.80;1843.20;;;;;;6236530;23;19899;-84
2022/03/09 08:05:03;;;;;;;;;;;102.90;1868.80;;;;;;6234858;23;19967;-83
2022/03/09 08:07:30;;;;;;;;;;;102.80;1868.80;;;;;;6245730;23;19900;-83
2022/03/09 08:10:00;;;;;;;;;;;102.80;1843.20;;;;;;6242553;23;19907;-85
2022/03/09 08:12:53;;;;;;;;;;;102.90;1868.80;;;;;;6225312;23;19919;-85
2022/03/09 08:15:19;;;;;;;;;;;102.80;1843.20;;;;;;6266251;23;20244;-83
2022/03/09 08:17:49;;;;;;;;;;;102.90;1868.80;;;;;;6237274;23;19899;-83
2022/03/09 08:20:15;;;;;;;;;;;102.90;1843.20;;;;;;6235173;23;19944;-82
2022/03/09 08:22:42;;;;;;;;;;;102.90;1817.60;;;;;;6235941;23;19900;-83
2022/03/09 08:25:08;;;;;;;;;;;102.90;1817.60;;;;;;6237039;23;19923;-82
2022/03/09 08:27:34;;;;;;;;;;;103.00;1843.20;;;;;;6235530;23;19899;-83
2022/03/09 08:30:08;;;;;;;;;;;103.00;1817.60;;;;;;6240910;23;19923;-82
2022/03/09 08:32:34;;;;;;;;;;;103.00;1817.60;;;;;;6236266;23;19915;-84
2022/03/09 08:35:00;;;;;;;;;;;103.10;1843.20;;;;;;6237280;23;19975;-82
2022/03/09 08:37:26;;;;;;;;;;;103.10;1843.20;;;;;;6237110;23;19907;-83
2022/03/09 08:39:52;;;;;;;;;;;103.10;1843.20;;;;;;6237400;23;19900;-83
2022/03/09 08:42:18;;;;;;;;;;;103.00;1792.00;;;;;;6237591;23;20293;-82
2022/03/09 08:44:43;;;;;;;;;;;103.10;1817.60;;;;;;6241360;23;19900;-85
2022/03/09 08:47:14;;;;;;;;;;;103.10;1817.60;;;;;;6242433;23;19899;-85
2022/03/09 08:49:40;;;;;;;;;;;103.20;1766.40;;;;;;6245031;23;19900;-84
2022/03/09 08:52:11;;;;;;;;;;;103.30;1792.00;;;;;;6244725;23;19931;-85
2022/03/09 08:54:40;;;;;;;;;;;103.30;1792.00;;;;;;6234485;23;19907;-84
2022/03/09 08:57:06;;;;;;;;;;;103.30;1766.40;;;;;;6244283;23;19916;-82
2022/03/09 08:59:37;;;;;;;;;;;128.40;1792.00;;;;;;6265608;23;19940;-84
2022/03/09 09:02:21;;;;;;;;;;;128.00;1766.40;;;;;;6235460;23;19915;-83
2022/03/09 09:04:47;;;;;;;;;;;103.10;1740.80;;;;;;6210187;23;19910;-82
2022/03/09 09:07:13;;;;;;;;;;;128.20;1766.40;;;;;;6210297;23;19919;-82
2022/03/09 09:09:40;;;;;;;;;;;128.10;1766.40;;;;;;6210075;23;19907;-84
2022/03/09 09:12:06;;;;;;;;;;;128.20;1766.40;;;;;;6211349;23;19932;-84
2022/03/09 09:14:32;;;;;;;;;;;153.60;1766.40;;;;;;6214914;23;19900;-84
2022/03/09 09:17:00;;;;;;;;;;;128.30;1766.40;;;;;;6239232;23;19899;-82
2022/03/09 09:19:28;;;;;;;;;;;128.30;1792.00;;;;;;6240228;23;19884;-83
2022/03/09 09:22:14;;;;;;;;;;;128.40;1740.80;;;;;;6243572;22;19900;-83
2022/03/09 09:24:43;;;;;;;;;;;128.50;1792.00;;;;;;6244867;23;19902;-83
2022/03/09 09:33:09;;;;;;;;;;;128.70;1715.20;;;;;;6261075;22;19983;-82
2022/03/09 09:35:38;;;;;;;;;;;128.70;1740.80;;;;;;6271952;23;19921;-82
2022/03/09 09:38:08;;;;;;;;;;;128.90;1740.80;;;;;;6272345;23;19915;-83
2022/03/09 09:40:55;;;;;;;;;;;128.90;1740.80;;;;;;6220377;23;19904;-84
2022/03/09 09:43:24;;;;;;;;;;;153.60;1766.40;;;;;;6270807;23;19904;-82
2022/03/09 09:46:11;;;;;;;;;;;128.90;1766.40;;;;;;6271164;23;19899;-85
2022/03/09 09:48:41;;;;;;;;;;;153.60;1766.40;;;;;;6273354;23;19890;-84
2022/03/09 09:51:30;;;;;;;;;;;153.70;1766.40;;;;;;6273170;22;19919;-83
2022/03/09 10:54:45;;;;;;;;;;;205.50;1484.80;;;;;;6248021;23;19966;-87
2022/03/09 11:09:16;;;;;;;;;;;205.30;1484.80;;;;;;6255142;23;19949;-88
2022/03/09 11:11:44;;;;;;;;;;;205.70;1459.20;;;;;;6220721;23;19914;-87
2022/03/09 11:14:10;;;;;;;;;;;230.50;1433.60;;;;;;6220429;23;19904;-88
2022/03/09 11:16:36;;;;;;;;;;;230.70;1433.60;;;;;;6220702;23;19899;-88
2022/03/09 11:19:02;;;;;;;;;;;230.80;1433.60;;;;;;6220625;23;19900;-87
2022/03/09 11:21:28;;;;;;;;;;;230.90;1408.00;;;;;;6220462;23;20301;-86
2022/03/09 11:23:54;;;;;;;;;;;231.10;1356.80;;;;;;6220093;23;19987;-86
2022/03/09 11:26:23;;;;;;;;;;;231.00;1382.40;;;;;;6220565;23;19942;-87
2022/03/09 11:28:58;;;;;;;;;;;231.20;1356.80;;;;;;6220431;23;20382;-87
2022/03/09 11:31:40;;;;;;;;;;;231.20;1305.60;;;;;;6220344;23;19911;-87
2022/03/09 11:34:06;;;;;;;;;;;231.10;1305.60;;;;;;6220095;23;19903;-87
2022/03/09 11:36:33;;;;;;;;;;;231.00;1280.00;;;;;;6220545;23;20214;-85
2022/03/09 11:39:04;;;;;;;;;;;231.20;1280.00;;;;;;6220537;23;19899;-85
2022/03/09 11:41:37;;;;;;;;;;;231.10;1280.00;;;;;;6220389;23;19987;-87
2022/03/09 11:44:21;;;;;;;;;;;231.10;1280.00;;;;;;6246915;23;19907;-87
2022/03/09 11:47:00;;;;;;;;;;;231.00;1280.00;;;;;;6247053;23;19915;-86
2022/03/09 11:49:41;;;;;;;;;;;231.00;1280.00;;;;;;6220478;23;20309;-87
2022/03/09 11:52:07;;;;;;;;;;;230.90;1305.60;;;;;;6220393;23;19965;-87
2022/03/09 11:54:55;;;;;;;;;;;230.70;1331.20;;;;;;6220617;23;19904;-87
2022/03/09 11:57:23;;;;;;;;;;;230.70;1356.80;;;;;;6222561;23;19907;-89
2022/03/09 12:00:08;;;;;;;;;;;230.80;1331.20;;;;;;6222302;23;20198;-87
2022/03/09 12:02:43;;;;;;;;;;;230.90;1331.20;;;;;;6221942;23;19979;-87
2022/03/09 12:05:29;;;;;;;;;;;230.70;1331.20;;;;;;6222093;23;20298;-88
2022/03/09 12:08:00;;;;;;;;;;;230.70;1331.20;;;;;;6221330;23;19907;-86
2022/03/09 12:10:46;;;;;;;;;;;230.70;1356.80;;;;;;6222048;23;20225;-87
2022/03/09 12:13:12;;;;;;;;;;;230.50;1356.80;;;;;;6246402;23;19904;-87
2022/03/09 12:15:56;;;;;;;;;;;230.50;1356.80;;;;;;6221999;23;20236;-88
2022/03/09 12:18:32;;;;;;;;;;;230.70;1356.80;;;;;;6221896;23;19906;-87
2022/03/09 12:20:58;;;;;;;;;;;230.80;1356.80;;;;;;6221820;23;19945;-88
2022/03/09 12:23:24;;;;;;;;;;;230.80;1356.80;;;;;;6221889;23;19903;-87
2022/03/09 12:25:50;;;;;;;;;;;230.90;1356.80;;;;;;6221705;23;19982;-86
2022/03/09 12:28:32;;;;;;;;;;;230.70;1331.20;;;;;;6221741;23;19906;-88
2022/03/09 12:30:57;;;;;;;;;;;230.60;1331.20;;;;;;6221727;23;20370;-88
2022/03/09 12:33:23;;;;;;;;;;;230.40;1382.40;;;;;;6221707;23;19899;-87
2022/03/09 12:35:48;;;;;;;;;;;205.60;1382.40;;;;;;6222035;23;19903;-86
2022/03/09 12:38:14;;;;;;;;;;;205.50;1382.40;;;;;;6221868;23;19982;-89
2022/03/09 12:40:40;;;;;;;;;;;205.70;1382.40;;;;;;6248775;23;19914;-88
2022/03/09 12:43:06;;;;;;;;;;;205.70;1382.40;;;;;;6221786;23;19900;-89
2022/03/09 12:45:52;;;;;;;;;;;230.40;1408.00;;;;;;6221565;23;19906;-86
2022/03/09 12:48:22;;;;;;;;;;;230.40;1408.00;;;;;;6221440;23;19903;-87
2022/03/09 12:50:48;;;;;;;;;;;230.40;1382.40;;;;;;6221765;23;20305;-86
2022/03/09 12:53:18;;;;;;;;;;;230.40;1382.40;;;;;;6221923;23;19904;-87
2022/03/09 12:55:44;;;;;;;;;;;230.50;1382.40;;;;;;6221906;23;19979;-88
2022/03/09 12:58:09;;;;;;;;;;;230.50;1382.40;;;;;;6221618;23;19900;-89
2022/03/09 13:00:35;;;;;;;;;;;230.50;1382.40;;;;;;6219782;23;19899;-87
2022/03/09 13:03:01;;;;;;;;;;;230.50;1356.80;;;;;;6220562;23;20317;-86
2022/03/09 13:05:29;;;;;;;;;;;230.60;1356.80;;;;;;6221713;23;20041;-86
2022/03/09 13:07:56;;;;;;;;;;;230.80;1331.20;;;;;;6221423;23;19906;-86
2022/03/09 13:10:23;;;;;;;;;;;230.80;1331.20;;;;;;6221774;23;19923;-87
2022/03/09 13:12:56;;;;;;;;;;;230.90;1331.20;;;;;;6222002;23;19908;-86
2022/03/09 13:15:41;;;;;;;;;;;231.00;1331.20;;;;;;6248498;23;19906;-87
2022/03/09 13:18:07;;;;;;;;;;;231.00;1331.20;;;;;;6249056;23;19899;-87
2022/03/09 13:20:33;;;;;;;;;;;231.00;1331.20;;;;;;6221982;23;19899;-85
2022/03/09 13:22:59;;;;;;;;;;;231.10;1331.20;;;;;;6221964;23;20030;-86
2022/03/09 13:25:28;;;;;;;;;;;231.00;1331.20;;;;;;6221348;23;19982;-88
2022/03/09 13:28:01;;;;;;;;;;;231.10;1331.20;;;;;;6221759;23;19906;-85
2022/03/09 13:30:28;;;;;;;;;;;231.10;1331.20;;;;;;6221060;23;19974;-86
2022/03/09 13:32:53;;;;;;;;;;;231.00;1356.80;;;;;;6221620;23;19978;-85
2022/03/09 13:35:20;;;;;;;;;;;231.00;1331.20;;;;;;6221539;23;19903;-86
2022/03/09 13:37:46;;;;;;;;;;;231.00;1331.20;;;;;;6221719;23;19953;-88
2022/03/09 13:40:12;;;;;;;;;;;231.10;1331.20;;;;;;6220596;23;19923;-86
2022/03/09 13:42:39;;;;;;;;;;;231.20;1305.60;;;;;;6221633;23;20305;-86
2022/03/09 13:45:11;;;;;;;;;;;231.20;1305.60;;;;;;6221625;23;20313;-87
2022/03/09 13:47:49;;;;;;;;;;;231.20;1305.60;;;;;;6221503;23;19900;-87
2022/03/09 13:50:18;;;;;;;;;;;231.30;1280.00;;;;;;6221193;23;19958;-87
2022/03/09 13:52:45;;;;;;;;;;;231.20;1280.00;;;;;;6221322;23;19903;-85
2022/03/09 13:55:17;;;;;;;;;;;231.20;1280.00;;;;;;6221425;23;19991;-90
2022/03/09 13:57:43;;;;;;;;;;;231.20;1280.00;;;;;;6221352;23;20294;-90
2022/03/09 14:00:09;;;;;;;;;;;231.30;1280.00;;;;;;6220441;23;19904;-87
2022/03/09 14:02:35;;;;;;;;;;;231.30;1280.00;;;;;;6221420;23;19914;-89
2022/03/09 14:05:00;;;;;;;;;;;231.20;1280.00;;;;;;6221291;23;19900;-88
2022/03/09 14:07:36;;;;;;;;;;;231.20;1280.00;;;;;;6221440;23;19907;-89
2022/03/09 14:10:12;;;;;;;;;;;231.20;1280.00;;;;;;6221384;23;19969;-89
2022/03/09 14:12:42;;;;;;;;;;;231.20;1280.00;;;;;;6221274;23;19985;-91
2022/03/09 14:15:08;;;;;;;;;;;231.20;1280.00;;;;;;6221294;23;20247;-89
2022/03/09 14:17:34;;;;;;;;;;;231.00;1280.00;;;;;;6221300;23;19915;-91
2022/03/09 14:20:01;;;;;;;;;;;231.00;1305.60;;;;;;6220268;23;19903;-89
2022/03/09 14:22:37;;;;;;;;;;;231.00;1280.00;;;;;;6221271;23;20305;-87
2022/03/09 14:25:02;;;;;;;;;;;231.00;1280.00;;;;;;6247802;23;19899;-88
2022/03/09 14:27:28;;;;;;;;;;;230.90;1254.40;;;;;;6247714;23;19935;-89
2022/03/09 14:29:54;;;;;;;;;;;230.90;1254.40;;;;;;6220392;23;19900;-87
2022/03/09 14:32:20;;;;;;;;;;;230.80;1280.00;;;;;;6219226;23;20045;-85
2022/03/09 14:34:45;;;;;;;;;;;230.80;1280.00;;;;;;6219911;23;19899;-85
2022/03/09 14:37:12;;;;;;;;;;;230.70;1280.00;;;;;;6219518;23;19905;-86
2022/03/09 14:39:40;;;;;;;;;;;230.70;1305.60;;;;;;6221109;23;19978;-87
2022/03/09 14:42:06;;;;;;;;;;;230.70;1305.60;;;;;;6220792;23;19986;-87
2022/03/09 14:44:32;;;;;;;;;;;230.70;1305.60;;;;;;6247954;23;19978;-86
2022/03/09 14:46:58;;;;;;;;;;;230.70;1305.60;;;;;;6221053;23;20218;-85
2022/03/09 14:49:24;;;;;;;;;;;230.70;1305.60;;;;;;6220964;23;20313;-86
2022/03/09 14:51:50;;;;;;;;;;;230.60;1305.60;;;;;;6220963;23;19918;-89
2022/03/09 14:54:16;;;;;;;;;;;230.50;1305.60;;;;;;6221108;23;19986;-85
2022/03/09 14:56:43;;;;;;;;;;;230.60;1331.20;;;;;;6221012;23;19899;-86
2022/03/09 14:59:08;;;;;;;;;;;230.50;1305.60;;;;;;6247596;23;19900;-86
2022/03/09 15:01:34;;;;;;;;;;;230.50;1305.60;;;;;;6217608;23;19907;-87
2022/03/09 15:04:00;;;;;;;;;;;230.50;1331.20;;;;;;6190926;23;19912;-88
2022/03/09 15:06:29;;;;;;;;;;;230.40;1331.20;;;;;;6190830;23;20305;-88
2022/03/09 15:08:55;;;;;;;;;;;230.40;1331.20;;;;;;6190342;23;19982;-85
2022/03/09 15:11:21;;;;;;;;;;;230.40;1331.20;;;;;;6189335;23;19927;-87
2022/03/09 15:13:48;;;;;;;;;;;230.40;1331.20;;;;;;6189553;23;20304;-88